Atraxia — SE6246 — position and weather

sailwx.info

Track history (hours):
 
Tides and Currents Weather Stations Pressure Air Temp Water Temp Dewpoint Dewpoint Depression Visibility Wind Speed Wind Dir Waves Ship Positions

Atraxia

Last reported at 2017-Nov-11 14:25 UTC. Time now 2017-Dec-17 15:58 UTC.
Position N 37°55' E 023°42'.
Warning: this ship's position is 36 days out of date.

Length 15 m.

Type: Pleasure craft. MMSI: 265719690.

Date/timePositionNaut miles runAvg speedWind from/ knotsBaromVisibWave heightAir tempDewpointWater temp
2017-Nov-11 14:25N 37°55' E 023°42'0 0.0
2017-Nov-11 13:58N 37°55' E 023°42'0 0.0
2017-Nov-11 13:28N 37°55' E 023°42'0 0.0
2017-Nov-11 12:04N 37°55' E 023°42'0 0.0
2017-Nov-11 11:46N 37°55' E 023°42'0 0.0
2017-Nov-11 11:28N 37°55' E 023°42'0 0.0
2017-Nov-11 10:58N 37°55' E 023°42'0 0.0
2017-Nov-10 16:57N 37°55' E 023°42'0 0.1
2017-Nov-10 16:30N 37°55' E 023°42'0 1.0
2017-Nov-10 16:00N 37°55' E 023°42'3 6.1
2017-Nov-10 15:30N 37°54' E 023°38'3 6.1
2017-Nov-10 15:00N 37°52' E 023°35'3 5.9
2017-Nov-10 14:28N 37°51' E 023°31'13 5.8
2017-Nov-10 12:10N 37°48' E 023°14'3 0.2
2017-Nov-09 14:47N 37°46' E 023°11'1 4.3
2017-Nov-09 14:27N 37°48' E 023°11'2 4.4
2017-Nov-09 13:59N 37°50' E 023°10'3 5.7
2017-Nov-09 13:30N 37°52' E 023°08'2 4.3
2017-Nov-09 13:00N 37°52' E 023°05'2 4.1
2017-Nov-09 12:30N 37°53' E 023°03'2 4.4
2017-Nov-09 12:00N 37°55' E 023°01'0 0.7
2017-Nov-09 11:30N 37°55' E 023°00'3 5.9
2017-Nov-09 10:58N 37°57' E 022°57'1 1.1
2017-Nov-09 10:30N 37°57' E 022°57'3 5.8
2017-Nov-09 09:59N 37°58' E 022°53'  
Track history (hours):
 
Tides and Currents Weather Stations Pressure Air Temp Water Temp Dewpoint Dewpoint Depression Visibility Wind Speed Wind Dir Waves Ship Positions

Atraxia

Last reported at 2017-Nov-11 14:25 UTC. Time now 2017-Dec-17 15:58 UTC.
Position N 37°55' E 023°42'.
Warning: this ship's position is 36 days out of date.

Length 15 m.

Type: Pleasure craft. MMSI: 265719690.

Date/timePositionNaut miles runAvg speedWind from/ knotsBaromVisibWave heightAir tempDewpointWater temp
2017-Nov-11 14:25N 37°55' E 023°42'0 0.0
2017-Nov-11 13:58N 37°55' E 023°42'0 0.0
2017-Nov-11 13:28N 37°55' E 023°42'0 0.0
2017-Nov-11 12:04N 37°55' E 023°42'0 0.0
2017-Nov-11 11:46N 37°55' E 023°42'0 0.0
2017-Nov-11 11:28N 37°55' E 023°42'0 0.0
2017-Nov-11 10:58N 37°55' E 023°42'0 0.0
2017-Nov-10 16:57N 37°55' E 023°42'0 0.1
2017-Nov-10 16:30N 37°55' E 023°42'0 1.0
2017-Nov-10 16:00N 37°55' E 023°42'3 6.1
2017-Nov-10 15:30N 37°54' E 023°38'3 6.1
2017-Nov-10 15:00N 37°52' E 023°35'3 5.9
2017-Nov-10 14:28N 37°51' E 023°31'13 5.8
2017-Nov-10 12:10N 37°48' E 023°14'3 0.2
2017-Nov-09 14:47N 37°46' E 023°11'1 4.3
2017-Nov-09 14:27N 37°48' E 023°11'2 4.4
2017-Nov-09 13:59N 37°50' E 023°10'3 5.7
2017-Nov-09 13:30N 37°52' E 023°08'2 4.3
2017-Nov-09 13:00N 37°52' E 023°05'2 4.1
2017-Nov-09 12:30N 37°53' E 023°03'2 4.4
2017-Nov-09 12:00N 37°55' E 023°01'0 0.7
2017-Nov-09 11:30N 37°55' E 023°00'3 5.9
2017-Nov-09 10:58N 37°57' E 022°57'1 1.1
2017-Nov-09 10:30N 37°57' E 022°57'3 5.8
2017-Nov-09 09:59N 37°58' E 022°53'  

Dump ship's entire track history